Santa Maria Pub/Capt G Allan Hancock Field
KSMX : now visible

Airfield :











YOU CAN JOIN US ON...

 
LOGIN :

Register | Disclaimer

   EN    FR    IT 

 









Legend :    VFR   Marginal VFR   IFR   Intensive IFR   Very Intensive IFR
Visi :
Ceiling :
>= 8 km
>= 3000ft
5 to 8 km
1000 to 3000 ft
1500m to 5 km
500 to 1000 ft
800 to 1500m
200 to 500 ft
< 800m
< 200 ft
Symbols :   Thunderstorms  Fog  Heavy snow  Heavy precipitations  Wind > 20 kt






- Airport Elevation : 261 ft
- IATA code : SMX


KSMX - Santa Maria Pub/Capt G Allan Hancock Field

CURRENT METAR :
  • 150751Z AUTO 00000KT 8SM CLR 08/05 A3007 RMK AO2 SLP186 T00780050 401610067 TSNO

EXPIRED METARs :
  • 150651Z AUTO 00000KT 7SM CLR 08/05 A3007 RMK AO2 SLP187 T00780050 TSNO
  • 150551Z AUTO 00000KT 8SM CLR 09/06 A3007 RMK AO2 SLP185 T00890056 10144 20083 53014 TSNO

TAF KSMX
Valid from the 15 at 06:00 until the 16 at 06:00 UTC


150533Z 1506/1606 33007KT P6SM SKC
FM151500 33012KT P6SM SKC
FM152000 32018G25KT P6SM SKC
FM160300 32010KT P6SM SKC



MET'MAP, your aeronautical weather chart ! - Copyright ORBIFLY December 2007 - Disclaimer

ORBIFLY MET'MAP TEAM :

Programming & Development : Alexandra Zaïnal
Concept & original design : Baudouin d'Aumeries
Assistance for programming : Marc-Olivier Méhu
Technical & hardware support : Manuel Goepfert

Contact : metmap@orbifly.com




SOURCES & CREDITS :

   NOAA       Earth
Advisory